Linn, KS

2:24 PM CDT on August 01, 2015 (GMT -0500)
APRSWXNET | | Change Station
CLOSE
Current Station
Personal Weather Station
Location: Greenleaf, KS
Elevation: 1300 ft
Nearby Weather Stations

Elev 1300 ft 39.67 °N, 96.96 °W | Updated 16 minutes ago

Partly Cloudy
Partly Cloudy
90 °F
Feels Like 98 °F
N
4
Wind Variable Wind from South
Gusts 9.0 mph

Today
High -- | Low -- °F
--% Chance of Precip.
Yesterday
High -- | Low -- °F
Precip. -- in
6:27 AM 8:41 PM
Full, 97% visible
Pressure 29.99 in
Visibility 10.0 miles
Clouds Scattered Clouds 4500 ft
Mostly Cloudy 5500 ft
Heat Index 98 °F
Dew Point 72 °F
Humidity 56%
Rainfall in
Snow Depth Not available.
UV 6 out of 12
Pollen 7.00 out of 12
Air Quality Not available.
Flu Activity Not available.
METAR KCNK 011855Z AUTO 06006KT 10SM SCT045 BKN055 31/22 A3004 RMK AO2 SLP154 T03060217

More Conditions Fewer Conditions

Pressure 29.99 in
Visibility 10.0 miles
Clouds Scattered Clouds 4500 ft
Mostly Cloudy 5500 ft
Heat Index 98 °F
Dew Point 72 °F
Humidity 56%
Rainfall in
Snow Depth Not available.
UV 6 out of 12
Pollen 7.00 out of 12
Air Quality Not available.
Flu Activity Not available.
METAR KCNK 011855Z AUTO 06006KT 10SM SCT045 BKN055 31/22 A3004 RMK AO2 SLP154 T03060217

More Conditions Fewer Conditions

10-Day Weather Forecast

×

Almanac

Astronomy

Aug. 01, 2015 Rise Set
Actual Time
Civil Twilight
Nautical Twilight
Astronomical Twilight
Moon
Length of Visible Light
Length of Day
Tomorrow will be .
, % of the Moon is Illuminated

Today's Extremes

State Highs State Lows

Community

WunderPhotos

Upload Photos

1,843,042 photos uploaded!

WunderBlogs® & News

Nearby

Air Quality

  Air Quality AQ Index Pollutant
Not available.

Snow Depth

Station Depth Elevation

Earthquake Activity

City Distance Mag. Time & Date
Minimum magnitude displayed is 2.5.

Coastal Water Temperatures

Place Temperature

Stations

Nearby Weather Stations

Station Location Temp. Windchill Dew Point Humidity Wind Precip. Elev Updated Type